sensor_id;sensor_type;location;lat;lon;timestamp;pressure;altitude;pressure_sealevel;temperature;humidity
10732;BME280;5417;42.686;23.244;2022-07-29T00:02:11;94460.56;;;22.19;69.88
10732;BME280;5417;42.686;23.244;2022-07-29T00:04:41;94462.72;;;22.36;69.73
10732;BME280;5417;42.686;23.244;2022-07-29T00:07:10;94463.06;;;22.27;69.85
10732;BME280;5417;42.686;23.244;2022-07-29T00:09:41;94464.44;;;22.16;70.31
10732;BME280;5417;42.686;23.244;2022-07-29T00:12:10;94465.97;;;22.04;69.31
10732;BME280;5417;42.686;23.244;2022-07-29T00:14:37;94461.22;;;21.99;69.20
10732;BME280;5417;42.686;23.244;2022-07-29T00:17:06;94459.97;;;21.95;70.05
10732;BME280;5417;42.686;23.244;2022-07-29T00:19:33;94447.94;;;21.93;69.92
10732;BME280;5417;42.686;23.244;2022-07-29T00:22:02;94449.34;;;21.89;70.13
10732;BME280;5417;42.686;23.244;2022-07-29T00:24:33;94446.25;;;21.85;69.97
10732;BME280;5417;42.686;23.244;2022-07-29T00:27:03;94454.00;;;21.87;70.06
10732;BME280;5417;42.686;23.244;2022-07-29T00:29:30;94447.22;;;21.84;70.08
10732;BME280;5417;42.686;23.244;2022-07-29T00:31:59;94444.56;;;21.84;69.04
10732;BME280;5417;42.686;23.244;2022-07-29T00:34:32;94435.38;;;21.80;68.40
10732;BME280;5417;42.686;23.244;2022-07-29T00:37:16;94454.25;;;21.92;68.70
10732;BME280;5417;42.686;23.244;2022-07-29T00:39:43;94454.28;;;21.98;68.74
10732;BME280;5417;42.686;23.244;2022-07-29T00:42:15;94459.09;;;22.10;68.41
10732;BME280;5417;42.686;23.244;2022-07-29T00:44:45;94468.75;;;21.96;68.92
10732;BME280;5417;42.686;23.244;2022-07-29T00:47:12;94465.31;;;21.53;70.58
10732;BME280;5417;42.686;23.244;2022-07-29T00:49:42;94461.41;;;21.13;71.85
10732;BME280;5417;42.686;23.244;2022-07-29T00:52:12;94470.78;;;20.79;72.43
10732;BME280;5417;42.686;23.244;2022-07-29T00:54:40;94465.06;;;20.61;73.91
10732;BME280;5417;42.686;23.244;2022-07-29T00:57:14;94466.81;;;20.54;73.87
10732;BME280;5417;42.686;23.244;2022-07-29T00:59:58;94479.56;;;20.35;75.06
10732;BME280;5417;42.686;23.244;2022-07-29T01:02:27;94457.94;;;20.17;75.24
10732;BME280;5417;42.686;23.244;2022-07-29T01:04:54;94451.31;;;20.36;75.14
10732;BME280;5417;42.686;23.244;2022-07-29T01:07:25;94443.94;;;20.31;75.39
10732;BME280;5417;42.686;23.244;2022-07-29T01:09:56;94438.28;;;20.34;75.56
10732;BME280;5417;42.686;23.244;2022-07-29T01:12:30;94437.44;;;20.34;75.29
10732;BME280;5417;42.686;23.244;2022-07-29T01:14:59;94441.31;;;20.46;74.51
10732;BME280;5417;42.686;23.244;2022-07-29T01:17:31;94439.94;;;20.50;74.46
10732;BME280;5417;42.686;23.244;2022-07-29T01:20:05;94420.97;;;20.46;74.28
10732;BME280;5417;42.686;23.244;2022-07-29T01:22:52;94433.06;;;20.56;73.90
10732;BME280;5417;42.686;23.244;2022-07-29T01:25:48;94437.59;;;20.76;73.77
10732;BME280;5417;42.686;23.244;2022-07-29T01:28:51;94438.84;;;20.80;73.10
10732;BME280;5417;42.686;23.244;2022-07-29T01:31:28;94423.47;;;20.69;73.46
10732;BME280;5417;42.686;23.244;2022-07-29T01:34:05;94437.88;;;20.82;73.59
10732;BME280;5417;42.686;23.244;2022-07-29T01:36:45;94430.19;;;20.87;73.00
10732;BME280;5417;42.686;23.244;2022-07-29T01:39:18;94433.47;;;20.89;73.14
10732;BME280;5417;42.686;23.244;2022-07-29T01:41:57;94424.91;;;20.87;73.41
10732;BME280;5417;42.686;23.244;2022-07-29T01:44:31;94428.63;;;20.92;73.49
10732;BME280;5417;42.686;23.244;2022-07-29T01:47:05;94431.34;;;20.99;72.88
10732;BME280;5417;42.686;23.244;2022-07-29T01:49:36;94421.13;;;20.96;72.60
10732;BME280;5417;42.686;23.244;2022-07-29T01:52:11;94426.44;;;20.96;72.64
10732;BME280;5417;42.686;23.244;2022-07-29T01:54:43;94417.22;;;20.92;72.51
10732;BME280;5417;42.686;23.244;2022-07-29T01:57:14;94431.78;;;21.02;72.66
10732;BME280;5417;42.686;23.244;2022-07-29T01:59:45;94412.19;;;20.97;72.60
10732;BME280;5417;42.686;23.244;2022-07-29T02:02:14;94423.66;;;21.04;72.69
10732;BME280;5417;42.686;23.244;2022-07-29T02:04:43;94401.34;;;20.92;72.52
10732;BME280;5417;42.686;23.244;2022-07-29T02:07:17;94415.47;;;20.99;72.63
10732;BME280;5417;42.686;23.244;2022-07-29T02:09:45;94419.00;;;21.06;72.73
10732;BME280;5417;42.686;23.244;2022-07-29T02:12:14;94412.50;;;21.08;72.61
10732;BME280;5417;42.686;23.244;2022-07-29T02:14:48;94414.97;;;21.10;72.22
10732;BME280;5417;42.686;23.244;2022-07-29T02:17:22;94403.75;;;21.08;72.18
10732;BME280;5417;42.686;23.244;2022-07-29T02:19:50;94410.50;;;21.10;71.97
10732;BME280;5417;42.686;23.244;2022-07-29T02:22:19;94410.31;;;21.12;71.92
10732;BME280;5417;42.686;23.244;2022-07-29T02:24:48;94393.16;;;21.08;71.31
10732;BME280;5417;42.686;23.244;2022-07-29T02:27:19;94392.16;;;21.09;71.33
10732;BME280;5417;42.686;23.244;2022-07-29T02:29:49;94398.97;;;21.18;71.12
10732;BME280;5417;42.686;23.244;2022-07-29T02:32:17;94397.94;;;21.19;71.08
10732;BME280;5417;42.686;23.244;2022-07-29T02:34:44;94399.59;;;21.20;71.28
10732;BME280;5417;42.686;23.244;2022-07-29T02:37:13;94400.22;;;21.22;71.79
10732;BME280;5417;42.686;23.244;2022-07-29T02:39:43;94388.00;;;21.21;71.68
10732;BME280;5417;42.686;23.244;2022-07-29T02:42:14;94374.59;;;21.23;71.65
10732;BME280;5417;42.686;23.244;2022-07-29T02:44:42;94377.06;;;21.24;71.99
10732;BME280;5417;42.686;23.244;2022-07-29T02:47:16;94385.53;;;21.20;71.71
10732;BME280;5417;42.686;23.244;2022-07-29T02:49:49;94383.50;;;21.36;70.88
10732;BME280;5417;42.686;23.244;2022-07-29T02:52:22;94388.66;;;21.45;70.81
10732;BME280;5417;42.686;23.244;2022-07-29T02:55:14;94387.50;;;21.32;71.21
10732;BME280;5417;42.686;23.244;2022-07-29T02:57:43;94363.03;;;21.09;71.79
10732;BME280;5417;42.686;23.244;2022-07-29T03:00:12;94392.03;;;21.17;72.19
10732;BME280;5417;42.686;23.244;2022-07-29T03:02:44;94392.03;;;21.17;72.42
10732;BME280;5417;42.686;23.244;2022-07-29T03:05:16;94393.59;;;21.11;72.66
10732;BME280;5417;42.686;23.244;2022-07-29T03:07:47;94400.22;;;21.01;73.20
10732;BME280;5417;42.686;23.244;2022-07-29T03:10:16;94384.41;;;20.86;74.08
10732;BME280;5417;42.686;23.244;2022-07-29T03:12:43;94389.44;;;20.81;74.47
10732;BME280;5417;42.686;23.244;2022-07-29T03:15:11;94401.81;;;20.80;74.35
10732;BME280;5417;42.686;23.244;2022-07-29T03:17:40;94404.25;;;20.97;73.98
10732;BME280;5417;42.686;23.244;2022-07-29T03:20:09;94407.34;;;21.00;73.51
10732;BME280;5417;42.686;23.244;2022-07-29T03:22:39;94406.28;;;20.80;74.13
10732;BME280;5417;42.686;23.244;2022-07-29T03:25:09;94406.66;;;20.77;74.44
10732;BME280;5417;42.686;23.244;2022-07-29T03:27:36;94407.22;;;20.72;74.57
10732;BME280;5417;42.686;23.244;2022-07-29T03:30:04;94406.22;;;20.73;74.45
10732;BME280;5417;42.686;23.244;2022-07-29T03:32:31;94412.31;;;20.74;74.55
10732;BME280;5417;42.686;23.244;2022-07-29T03:34:59;94393.28;;;20.64;74.62
10732;BME280;5417;42.686;23.244;2022-07-29T03:37:27;94411.59;;;20.80;74.57
10732;BME280;5417;42.686;23.244;2022-07-29T03:39:57;94409.94;;;20.79;74.22
10732;BME280;5417;42.686;23.244;2022-07-29T03:42:26;94412.56;;;20.94;73.80
10732;BME280;5417;42.686;23.244;2022-07-29T03:44:55;94401.47;;;20.84;73.89
10732;BME280;5417;42.686;23.244;2022-07-29T03:47:25;94409.09;;;20.93;73.73
10732;BME280;5417;42.686;23.244;2022-07-29T03:49:59;94405.81;;;20.91;74.22
10732;BME280;5417;42.686;23.244;2022-07-29T03:52:28;94396.69;;;20.94;74.15
10732;BME280;5417;42.686;23.244;2022-07-29T03:54:55;94415.47;;;20.99;74.03
10732;BME280;5417;42.686;23.244;2022-07-29T03:57:25;94412.31;;;21.10;73.94
10732;BME280;5417;42.686;23.244;2022-07-29T03:59:54;94410.00;;;21.22;72.96
10732;BME280;5417;42.686;23.244;2022-07-29T04:02:21;94403.25;;;21.19;72.56
10732;BME280;5417;42.686;23.244;2022-07-29T04:04:49;94396.41;;;21.25;72.36
10732;BME280;5417;42.686;23.244;2022-07-29T04:07:16;94416.72;;;21.39;71.84
10732;BME280;5417;42.686;23.244;2022-07-29T04:09:45;94402.69;;;21.24;71.64
10732;BME280;5417;42.686;23.244;2022-07-29T04:12:12;94408.44;;;21.27;71.85
10732;BME280;5417;42.686;23.244;2022-07-29T04:14:39;94407.72;;;21.33;71.57
10732;BME280;5417;42.686;23.244;2022-07-29T04:17:06;94404.22;;;21.33;71.45
10732;BME280;5417;42.686;23.244;2022-07-29T04:19:33;94409.97;;;21.36;71.38
10732;BME280;5417;42.686;23.244;2022-07-29T04:22:00;94412.06;;;21.41;71.54
10732;BME280;5417;42.686;23.244;2022-07-29T04:24:27;94415.06;;;21.38;71.79
10732;BME280;5417;42.686;23.244;2022-07-29T04:26:56;94407.75;;;21.40;71.40
10732;BME280;5417;42.686;23.244;2022-07-29T04:29:23;94424.66;;;21.39;71.88
10732;BME280;5417;42.686;23.244;2022-07-29T04:31:49;94427.88;;;21.20;72.09
10732;BME280;5417;42.686;23.244;2022-07-29T04:34:16;94414.09;;;21.03;72.40
10732;BME280;5417;42.686;23.244;2022-07-29T04:36:43;94408.72;;;20.96;73.04
10732;BME280;5417;42.686;23.244;2022-07-29T04:39:10;94411.44;;;21.03;73.05
10732;BME280;5417;42.686;23.244;2022-07-29T04:41:37;94434.19;;;21.19;72.85
10732;BME280;5417;42.686;23.244;2022-07-29T04:44:05;94421.78;;;21.19;72.61
10732;BME280;5417;42.686;23.244;2022-07-29T04:46:33;94424.56;;;21.32;71.92
10732;BME280;5417;42.686;23.244;2022-07-29T04:49:00;94439.09;;;21.36;71.99
10732;BME280;5417;42.686;23.244;2022-07-29T04:51:28;94427.16;;;21.47;71.96
10732;BME280;5417;42.686;23.244;2022-07-29T04:53:55;94428.47;;;22.07;69.86
10732;BME280;5417;42.686;23.244;2022-07-29T04:56:22;94433.84;;;22.96;67.30
10732;BME280;5417;42.686;23.244;2022-07-29T04:58:49;94438.50;;;23.75;62.99
10732;BME280;5417;42.686;23.244;2022-07-29T05:04:29;94429.47;;;24.22;60.95
10732;BME280;5417;42.686;23.244;2022-07-29T05:07:02;94429.47;;;24.42;60.79
10732;BME280;5417;42.686;23.244;2022-07-29T05:09:29;94426.59;;;24.50;60.30
10732;BME280;5417;42.686;23.244;2022-07-29T05:11:57;94429.31;;;24.88;58.67
10732;BME280;5417;42.686;23.244;2022-07-29T05:14:24;94424.22;;;25.63;56.45
10732;BME280;5417;42.686;23.244;2022-07-29T05:16:52;94435.06;;;25.93;55.94
10732;BME280;5417;42.686;23.244;2022-07-29T05:19:22;94437.66;;;25.99;55.58
10732;BME280;5417;42.686;23.244;2022-07-29T05:21:53;94433.53;;;26.28;55.39
10732;BME280;5417;42.686;23.244;2022-07-29T05:24:19;94425.63;;;26.95;54.07
10732;BME280;5417;42.686;23.244;2022-07-29T05:26:48;94436.09;;;27.63;51.05
10732;BME280;5417;42.686;23.244;2022-07-29T05:29:15;94431.63;;;28.10;50.15
10732;BME280;5417;42.686;23.244;2022-07-29T05:31:44;94432.22;;;28.47;49.35
10732;BME280;5417;42.686;23.244;2022-07-29T05:34:10;94441.28;;;28.93;48.16
10732;BME280;5417;42.686;23.244;2022-07-29T05:36:40;94426.47;;;29.31;46.78
10732;BME280;5417;42.686;23.244;2022-07-29T05:39:08;94434.59;;;29.47;46.78
10732;BME280;5417;42.686;23.244;2022-07-29T05:41:35;94429.72;;;29.61;45.97
10732;BME280;5417;42.686;23.244;2022-07-29T05:44:02;94432.25;;;29.39;46.14
10732;BME280;5417;42.686;23.244;2022-07-29T05:46:32;94443.56;;;29.41;46.60
10732;BME280;5417;42.686;23.244;2022-07-29T05:48:59;94435.72;;;29.23;45.76
10732;BME280;5417;42.686;23.244;2022-07-29T05:51:28;94429.22;;;29.07;45.64
10732;BME280;5417;42.686;23.244;2022-07-29T05:53:56;94441.41;;;29.27;45.58
10732;BME280;5417;42.686;23.244;2022-07-29T05:56:26;94428.81;;;29.27;45.79
10732;BME280;5417;42.686;23.244;2022-07-29T05:58:53;94442.31;;;29.32;45.98
10732;BME280;5417;42.686;23.244;2022-07-29T06:01:20;94438.91;;;29.48;45.66
10732;BME280;5417;42.686;23.244;2022-07-29T06:03:47;94440.66;;;29.43;47.01
10732;BME280;5417;42.686;23.244;2022-07-29T06:06:14;94445.34;;;29.64;45.87
10732;BME280;5417;42.686;23.244;2022-07-29T06:08:41;94444.72;;;29.74;45.06
10732;BME280;5417;42.686;23.244;2022-07-29T06:11:08;94438.16;;;29.81;45.76
10732;BME280;5417;42.686;23.244;2022-07-29T06:13:39;94440.59;;;29.26;46.81
10732;BME280;5417;42.686;23.244;2022-07-29T06:16:12;94447.16;;;29.18;47.62
10732;BME280;5417;42.686;23.244;2022-07-29T06:18:39;94453.81;;;29.04;47.56
10732;BME280;5417;42.686;23.244;2022-07-29T06:21:08;94452.56;;;28.95;47.90
10732;BME280;5417;42.686;23.244;2022-07-29T06:23:36;94451.63;;;29.01;47.83
10732;BME280;5417;42.686;23.244;2022-07-29T06:26:06;94434.34;;;29.09;47.33
10732;BME280;5417;42.686;23.244;2022-07-29T06:28:34;94446.00;;;29.43;47.14
10732;BME280;5417;42.686;23.244;2022-07-29T06:31:05;94439.13;;;29.75;47.68
10732;BME280;5417;42.686;23.244;2022-07-29T06:33:34;94435.78;;;29.68;46.16
10732;BME280;5417;42.686;23.244;2022-07-29T06:36:03;94443.84;;;29.28;47.91
10732;BME280;5417;42.686;23.244;2022-07-29T06:38:43;94439.66;;;29.32;47.83
10732;BME280;5417;42.686;23.244;2022-07-29T06:41:18;94434.19;;;29.56;47.90
10732;BME280;5417;42.686;23.244;2022-07-29T06:43:48;94438.47;;;29.85;45.61
10732;BME280;5417;42.686;23.244;2022-07-29T06:46:19;94436.47;;;30.09;45.50
10732;BME280;5417;42.686;23.244;2022-07-29T06:48:46;94435.91;;;30.07;44.67
10732;BME280;5417;42.686;23.244;2022-07-29T06:51:14;94424.13;;;30.25;45.84
10732;BME280;5417;42.686;23.244;2022-07-29T06:53:41;94441.75;;;30.04;46.07
10732;BME280;5417;42.686;23.244;2022-07-29T06:56:11;94432.53;;;29.83;42.76
10732;BME280;5417;42.686;23.244;2022-07-29T06:58:39;94432.78;;;29.81;43.15
10732;BME280;5417;42.686;23.244;2022-07-29T07:01:09;94422.78;;;29.94;43.63
10732;BME280;5417;42.686;23.244;2022-07-29T07:03:38;94426.63;;;30.14;42.81
10732;BME280;5417;42.686;23.244;2022-07-29T07:06:05;94422.06;;;30.32;42.42
10732;BME280;5417;42.686;23.244;2022-07-29T07:08:35;94424.97;;;30.47;41.33
10732;BME280;5417;42.686;23.244;2022-07-29T07:11:02;94419.28;;;30.43;41.25
10732;BME280;5417;42.686;23.244;2022-07-29T07:13:29;94424.97;;;30.47;41.06
10732;BME280;5417;42.686;23.244;2022-07-29T07:16:00;94427.00;;;30.57;41.20
10732;BME280;5417;42.686;23.244;2022-07-29T07:18:29;94421.53;;;30.68;42.46
10732;BME280;5417;42.686;23.244;2022-07-29T07:20:58;94422.31;;;30.86;40.45
10732;BME280;5417;42.686;23.244;2022-07-29T07:23:25;94427.38;;;30.82;40.80
10732;BME280;5417;42.686;23.244;2022-07-29T07:25:51;94419.59;;;30.64;40.18
10732;BME280;5417;42.686;23.244;2022-07-29T07:28:21;94431.31;;;30.74;40.27
10732;BME280;5417;42.686;23.244;2022-07-29T07:30:48;94420.72;;;30.51;41.32
10732;BME280;5417;42.686;23.244;2022-07-29T07:33:18;94416.50;;;30.55;41.58
10732;BME280;5417;42.686;23.244;2022-07-29T07:35:45;94420.22;;;30.54;41.13
10732;BME280;5417;42.686;23.244;2022-07-29T07:38:15;94410.72;;;30.46;41.71
10732;BME280;5417;42.686;23.244;2022-07-29T07:40:45;94429.03;;;30.50;41.91
10732;BME280;5417;42.686;23.244;2022-07-29T07:43:12;94425.59;;;30.54;41.94
10732;BME280;5417;42.686;23.244;2022-07-29T07:45:39;94425.72;;;30.59;41.26
10732;BME280;5417;42.686;23.244;2022-07-29T07:48:06;94430.50;;;30.57;41.37
10732;BME280;5417;42.686;23.244;2022-07-29T07:50:35;94429.97;;;30.38;42.12
10732;BME280;5417;42.686;23.244;2022-07-29T07:53:05;94414.97;;;30.42;41.75
10732;BME280;5417;42.686;23.244;2022-07-29T07:55:33;94405.75;;;30.55;41.56
10732;BME280;5417;42.686;23.244;2022-07-29T07:58:05;94410.69;;;30.80;41.46
10732;BME280;5417;42.686;23.244;2022-07-29T08:00:32;94411.59;;;30.69;41.68
10732;BME280;5417;42.686;23.244;2022-07-29T08:02:59;94412.53;;;30.41;42.46
10732;BME280;5417;42.686;23.244;2022-07-29T08:05:29;94399.88;;;30.58;42.24
10732;BME280;5417;42.686;23.244;2022-07-29T08:07:56;94409.75;;;30.91;41.73
10732;BME280;5417;42.686;23.244;2022-07-29T08:10:25;94412.16;;;31.15;41.19
10732;BME280;5417;42.686;23.244;2022-07-29T08:13:11;94416.38;;;31.05;41.05
10732;BME280;5417;42.686;23.244;2022-07-29T08:15:40;94408.38;;;30.89;40.82
10732;BME280;5417;42.686;23.244;2022-07-29T08:18:08;94416.19;;;30.90;41.51
10732;BME280;5417;42.686;23.244;2022-07-29T08:20:38;94409.16;;;31.11;40.90
10732;BME280;5417;42.686;23.244;2022-07-29T08:23:08;94407.31;;;31.33;39.91
10732;BME280;5417;42.686;23.244;2022-07-29T08:25:35;94418.44;;;31.20;40.00
10732;BME280;5417;42.686;23.244;2022-07-29T08:28:05;94422.34;;;31.29;40.59
10732;BME280;5417;42.686;23.244;2022-07-29T08:30:35;94406.25;;;31.34;39.76
10732;BME280;5417;42.686;23.244;2022-07-29T08:33:03;94418.22;;;31.49;39.09
10732;BME280;5417;42.686;23.244;2022-07-29T08:35:32;94408.03;;;31.51;39.40
10732;BME280;5417;42.686;23.244;2022-07-29T08:37:59;94415.13;;;31.62;38.52
10732;BME280;5417;42.686;23.244;2022-07-29T08:40:28;94413.28;;;31.67;38.57
10732;BME280;5417;42.686;23.244;2022-07-29T08:42:56;94414.97;;;31.74;38.37
10732;BME280;5417;42.686;23.244;2022-07-29T08:45:23;94406.28;;;31.66;38.91
10732;BME280;5417;42.686;23.244;2022-07-29T08:47:52;94413.13;;;31.74;39.02
10732;BME280;5417;42.686;23.244;2022-07-29T08:50:19;94408.06;;;31.78;38.53
10732;BME280;5417;42.686;23.244;2022-07-29T08:52:46;94407.41;;;31.70;38.21
10732;BME280;5417;42.686;23.244;2022-07-29T08:55:18;94407.03;;;31.62;38.55
10732;BME280;5417;42.686;23.244;2022-07-29T08:57:47;94412.72;;;31.87;38.32
10732;BME280;5417;42.686;23.244;2022-07-29T09:00:15;94408.41;;;31.86;38.00
10732;BME280;5417;42.686;23.244;2022-07-29T09:02:47;94400.34;;;31.91;37.59
10732;BME280;5417;42.686;23.244;2022-07-29T09:05:21;94404.63;;;31.87;37.67
10732;BME280;5417;42.686;23.244;2022-07-29T09:07:52;94402.59;;;31.73;37.64
10732;BME280;5417;42.686;23.244;2022-07-29T09:10:20;94393.63;;;31.67;37.73
10732;BME280;5417;42.686;23.244;2022-07-29T09:12:47;94395.34;;;31.73;37.95
10732;BME280;5417;42.686;23.244;2022-07-29T09:15:18;94395.53;;;31.93;37.70
10732;BME280;5417;42.686;23.244;2022-07-29T09:17:49;94376.25;;;31.75;37.63
10732;BME280;5417;42.686;23.244;2022-07-29T09:20:21;94393.81;;;31.82;37.46
10732;BME280;5417;42.686;23.244;2022-07-29T09:22:49;94393.22;;;31.75;37.24
10732;BME280;5417;42.686;23.244;2022-07-29T09:25:36;94392.69;;;31.51;37.20
10732;BME280;5417;42.686;23.244;2022-07-29T09:28:07;94393.59;;;31.62;36.78
10732;BME280;5417;42.686;23.244;2022-07-29T09:30:49;94389.94;;;31.73;36.92
10732;BME280;5417;42.686;23.244;2022-07-29T09:33:16;94371.19;;;31.78;37.18
10732;BME280;5417;42.686;23.244;2022-07-29T09:35:45;94388.16;;;31.57;38.13
10732;BME280;5417;42.686;23.244;2022-07-29T09:38:13;94384.09;;;31.76;37.55
10732;BME280;5417;42.686;23.244;2022-07-29T09:40:56;94387.03;;;31.75;37.18
10732;BME280;5417;42.686;23.244;2022-07-29T09:43:25;94383.69;;;31.67;37.28
10732;BME280;5417;42.686;23.244;2022-07-29T09:45:52;94393.09;;;31.38;37.76
10732;BME280;5417;42.686;23.244;2022-07-29T09:48:23;94369.19;;;31.42;37.05
10732;BME280;5417;42.686;23.244;2022-07-29T09:50:54;94376.41;;;31.68;37.35
10732;BME280;5417;42.686;23.244;2022-07-29T09:53:32;94372.31;;;31.87;36.73
10732;BME280;5417;42.686;23.244;2022-07-29T09:56:03;94351.34;;;31.89;36.28
10732;BME280;5417;42.686;23.244;2022-07-29T09:58:33;94367.56;;;31.99;36.12
10732;BME280;5417;42.686;23.244;2022-07-29T10:01:00;94375.31;;;31.91;36.42
10732;BME280;5417;42.686;23.244;2022-07-29T10:03:30;94364.72;;;31.79;36.12
10732;BME280;5417;42.686;23.244;2022-07-29T10:06:06;94327.03;;;31.79;36.10
10732;BME280;5417;42.686;23.244;2022-07-29T10:08:34;94352.56;;;32.14;36.07
10732;BME280;5417;42.686;23.244;2022-07-29T10:11:11;94330.72;;;32.05;35.69
10732;BME280;5417;42.686;23.244;2022-07-29T10:13:38;94342.88;;;32.13;36.02
10732;BME280;5417;42.686;23.244;2022-07-29T10:16:07;94340.47;;;32.16;36.18
10732;BME280;5417;42.686;23.244;2022-07-29T10:18:35;94333.59;;;32.30;35.55
10732;BME280;5417;42.686;23.244;2022-07-29T10:21:06;94333.63;;;32.36;35.52
10732;BME280;5417;42.686;23.244;2022-07-29T10:23:33;94337.09;;;32.26;35.53
10732;BME280;5417;42.686;23.244;2022-07-29T10:26:01;94323.34;;;32.27;35.42
10732;BME280;5417;42.686;23.244;2022-07-29T10:28:29;94338.25;;;32.45;35.67
10732;BME280;5417;42.686;23.244;2022-07-29T10:31:01;94333.09;;;32.39;35.79
10732;BME280;5417;42.686;23.244;2022-07-29T10:33:41;94329.47;;;32.23;35.72
10732;BME280;5417;42.686;23.244;2022-07-29T10:36:37;94328.75;;;32.33;35.88
10732;BME280;5417;42.686;23.244;2022-07-29T10:39:17;94325.34;;;32.10;36.19
10732;BME280;5417;42.686;23.244;2022-07-29T10:41:56;94337.53;;;31.81;37.50
10732;BME280;5417;42.686;23.244;2022-07-29T10:44:26;94327.63;;;31.86;36.69
10732;BME280;5417;42.686;23.244;2022-07-29T10:46:54;94316.31;;;31.84;36.51
10732;BME280;5417;42.686;23.244;2022-07-29T10:49:22;94314.81;;;32.04;37.11
10732;BME280;5417;42.686;23.244;2022-07-29T10:51:57;94308.09;;;32.06;37.54
10732;BME280;5417;42.686;23.244;2022-07-29T10:54:49;94307.88;;;32.13;36.87
10732;BME280;5417;42.686;23.244;2022-07-29T10:57:23;94306.19;;;32.01;36.72
10732;BME280;5417;42.686;23.244;2022-07-29T11:03:02;94297.81;;;31.66;36.46
10732;BME280;5417;42.686;23.244;2022-07-29T11:05:29;94279.22;;;31.64;36.54
10732;BME280;5417;42.686;23.244;2022-07-29T11:08:21;94285.06;;;31.83;37.12
10732;BME280;5417;42.686;23.244;2022-07-29T11:13:47;94280.84;;;31.97;35.99
10732;BME280;5417;42.686;23.244;2022-07-29T11:16:16;94280.56;;;31.94;36.39
10732;BME280;5417;42.686;23.244;2022-07-29T11:19:20;94284.34;;;31.98;36.50
10732;BME280;5417;42.686;23.244;2022-07-29T11:21:49;94282.91;;;31.80;36.50
10732;BME280;5417;42.686;23.244;2022-07-29T11:24:20;94278.63;;;31.84;36.73
10732;BME280;5417;42.686;23.244;2022-07-29T11:27:22;94282.69;;;31.92;35.98
10732;BME280;5417;42.686;23.244;2022-07-29T11:29:51;94277.34;;;31.65;37.07
10732;BME280;5417;42.686;23.244;2022-07-29T11:32:19;94266.88;;;31.68;36.82
10732;BME280;5417;42.686;23.244;2022-07-29T11:34:47;94289.31;;;31.74;37.32
10732;BME280;5417;42.686;23.244;2022-07-29T11:37:21;94278.31;;;31.49;37.27
10732;BME280;5417;42.686;23.244;2022-07-29T11:40:09;94285.50;;;31.38;37.37
10732;BME280;5417;42.686;23.244;2022-07-29T11:42:41;94270.53;;;31.52;37.75
10732;BME280;5417;42.686;23.244;2022-07-29T11:45:10;94273.16;;;31.42;38.13
10732;BME280;5417;42.686;23.244;2022-07-29T11:47:40;94267.91;;;31.62;37.79
10732;BME280;5417;42.686;23.244;2022-07-29T11:50:09;94268.69;;;31.58;36.55
10732;BME280;5417;42.686;23.244;2022-07-29T11:52:38;94268.41;;;31.54;36.86
10732;BME280;5417;42.686;23.244;2022-07-29T11:55:10;94262.88;;;31.34;36.67
10732;BME280;5417;42.686;23.244;2022-07-29T11:57:46;94257.16;;;31.25;36.77
10732;BME280;5417;42.686;23.244;2022-07-29T12:00:22;94255.34;;;31.36;36.69
10732;BME280;5417;42.686;23.244;2022-07-29T12:02:50;94266.19;;;31.46;37.31
10732;BME280;5417;42.686;23.244;2022-07-29T12:05:19;94252.16;;;31.39;36.92
10732;BME280;5417;42.686;23.244;2022-07-29T12:07:47;94251.97;;;31.51;36.31
10732;BME280;5417;42.686;23.244;2022-07-29T12:10:16;94253.31;;;31.53;36.32
10732;BME280;5417;42.686;23.244;2022-07-29T12:12:51;94259.00;;;31.57;36.00
10732;BME280;5417;42.686;23.244;2022-07-29T12:15:19;94272.38;;;31.47;35.62
10732;BME280;5417;42.686;23.244;2022-07-29T12:17:47;94249.34;;;31.24;35.68
10732;BME280;5417;42.686;23.244;2022-07-29T12:20:22;94261.75;;;31.30;35.83
10732;BME280;5417;42.686;23.244;2022-07-29T12:22:49;94254.09;;;31.49;36.24
10732;BME280;5417;42.686;23.244;2022-07-29T12:25:21;94282.22;;;31.31;35.85
10732;BME280;5417;42.686;23.244;2022-07-29T12:27:58;94254.25;;;31.32;36.54
10732;BME280;5417;42.686;23.244;2022-07-29T12:30:41;94250.53;;;31.38;36.20
10732;BME280;5417;42.686;23.244;2022-07-29T12:33:15;94223.88;;;31.36;35.92
10732;BME280;5417;42.686;23.244;2022-07-29T12:35:45;94226.88;;;31.40;35.04
10732;BME280;5417;42.686;23.244;2022-07-29T12:38:13;94239.22;;;31.36;35.59
10732;BME280;5417;42.686;23.244;2022-07-29T12:40:45;94236.00;;;31.39;36.04
10732;BME280;5417;42.686;23.244;2022-07-29T12:43:13;94230.63;;;31.39;36.22
10732;BME280;5417;42.686;23.244;2022-07-29T12:45:42;94240.09;;;31.47;36.61
10732;BME280;5417;42.686;23.244;2022-07-29T12:48:11;94241.34;;;31.34;36.18
10732;BME280;5417;42.686;23.244;2022-07-29T12:50:56;94227.91;;;31.34;35.44
10732;BME280;5417;42.686;23.244;2022-07-29T12:53:23;94239.44;;;31.29;36.00
10732;BME280;5417;42.686;23.244;2022-07-29T12:55:53;94230.19;;;31.20;36.26
10732;BME280;5417;42.686;23.244;2022-07-29T12:58:29;94228.38;;;31.26;36.45
10732;BME280;5417;42.686;23.244;2022-07-29T13:01:10;94214.84;;;31.21;35.44
10732;BME280;5417;42.686;23.244;2022-07-29T13:03:43;94227.28;;;31.00;36.43
10732;BME280;5417;42.686;23.244;2022-07-29T13:06:31;94225.72;;;31.04;35.79
10732;BME280;5417;42.686;23.244;2022-07-29T13:09:00;94208.00;;;31.08;35.67
10732;BME280;5417;42.686;23.244;2022-07-29T13:11:30;94202.06;;;31.06;35.74
10732;BME280;5417;42.686;23.244;2022-07-29T13:13:58;94208.84;;;31.14;35.79
10732;BME280;5417;42.686;23.244;2022-07-29T13:16:25;94216.13;;;31.13;35.87
10732;BME280;5417;42.686;23.244;2022-07-29T13:19:07;94205.34;;;30.81;35.64
10732;BME280;5417;42.686;23.244;2022-07-29T13:21:35;94216.19;;;30.91;35.50
10732;BME280;5417;42.686;23.244;2022-07-29T13:24:03;94205.22;;;30.98;35.50
10732;BME280;5417;42.686;23.244;2022-07-29T13:26:31;94203.41;;;31.03;35.31
10732;BME280;5417;42.686;23.244;2022-07-29T13:29:01;94200.38;;;30.95;35.71